Friend, NE (68359)

2:22 PM CDT on September 26, 2016 (GMT -0500)
3 Miles East of Friend | | Change Station

Elev 1531 ft 40.66 °N, 97.22 °W | Updated 4 seconds ago

Clear
Clear
75.0 °F
Feels Like 77 °F
N
12.3
Wind Variable Wind from WNW
Gusts 15.0 mph

Today
High -- | Low -- °F
--% Chance of Precip.
Yesterday
High -- | Low -- °F
Precip. -- in
Pressure 30.20 in
Visibility 10.0 miles
Clouds Clear
Heat Index 77 °F
Dew Point 40 °F
Humidity 28%
Rainfall 0.00 in
Snow Depth Not available.
7:21 AM 7:18 PM
Waning Crescent, 17% visible
METAR KJYR 261915Z AUTO 27012G18KT 10SM CLR 23/02 A3020 RMK AO2
Pressure 30.20 in
Visibility 10.0 miles
Clouds Clear
Heat Index 77 °F
Dew Point 40 °F
Humidity 28%
Rainfall 0.00 in
Snow Depth Not available.
7:21 AM 7:18 PM
Waning Crescent, 17% visible
METAR KJYR 261915Z AUTO 27012G18KT 10SM CLR 23/02 A3020 RMK AO2

10-Day Weather Forecast

Almanac

Astronomy

Sep. 26, 2016 Rise Set
Actual Time
Civil Twilight
Nautical Twilight
Astronomical Twilight
Moon
Length of Visible Light
Length of Day
Tomorrow will be .
, % of the Moon is Illuminated

Today's Extremes

State Highs State Lows

Community

WunderPhotos

Upload Photos

1,941,954 photos uploaded!

WunderBlog® & News

Nearby

Air Quality

  Air Quality AQ Index Pollutant
Not available.

Snow Depth

Station Depth Elevation

Earthquake Activity

City Distance Mag. Time & Date
Minimum magnitude displayed is 2.5.

Coastal Water Temperatures

Place Temperature

Stations

Nearby Weather Stations

Station Location Temp. Windchill Dew Point Humidity Wind Precip. Elev Updated Type
                   

Watches & Warnings

There are currently no watches in effect.